Los Molinos, California
Current Conditions -  °F | °C
As of 8:54 PM on Saturday 25 Oct 2014 (Local Time) from KRBL Reporting Station
Light Rain Light Rain  
Wind Chill: 63°   Ceiling: 5500
Heat Index: 63°   Visibility: 10mi
Dew Point: 47°   Wind: 5mph
Humidity: 56%   Direction: 350°N
Pressure: 30.02"   Gusts: NA
Location:  40.02°N, 122.1°W
Report Text: KRBL 260354Z AUTO 35004KT 10SM -RA SCT047 BKN055 OVC100 17/08 A3002 RMK AO2 RAB49 SLP165 P0000 T01720083
Loading
Personal Weather Stations






























Interactive Weather Map New forecast layout! Learn more

10-Day Weather Forecast

Advertisements
Track Severe Weather on mobile